createdAt,value
2023-04-24T00:01:22.629Z,15.70
2023-04-24T00:06:23.990Z,19.70
2023-04-24T00:11:25.268Z,19.70
2023-04-24T00:16:26.336Z,15.60
2023-04-24T00:21:27.460Z,19.10
2023-04-24T00:26:28.718Z,19.20
2023-04-24T00:31:29.769Z,19.30
2023-04-24T00:36:31.473Z,16.30
2023-04-24T00:41:32.862Z,14.60
2023-04-24T00:46:33.991Z,12.90
2023-04-24T00:51:35.059Z,14.10
2023-04-24T00:56:36.407Z,13.20
2023-04-24T01:01:42.336Z,15.50
2023-04-24T01:06:45.946Z,15.10
2023-04-24T01:11:47.351Z,15.50
2023-04-24T01:16:48.340Z,14.80
2023-04-24T01:21:51.765Z,14.20
2023-04-24T01:26:52.884Z,12.30
2023-04-24T01:31:55.550Z,11.30
2023-04-24T01:36:56.915Z,10.20
2023-04-24T01:41:58.049Z,12.90
2023-04-24T01:47:01.224Z,10.70
2023-04-24T01:52:02.555Z,10.40
2023-04-24T01:57:05.944Z,10.10
2023-04-24T02:02:07.814Z,9.80
2023-04-24T02:07:10.628Z,9.30
2023-04-24T02:12:11.717Z,10.40
2023-04-24T02:17:13.678Z,9.20
2023-04-24T02:22:14.824Z,7.90
2023-04-24T02:27:15.855Z,9.20
2023-04-24T02:32:17.095Z,9.30
2023-04-24T02:37:18.177Z,8.90
2023-04-24T02:42:19.155Z,10.20
2023-04-24T02:47:20.373Z,10.60
2023-04-24T02:52:24.439Z,10.60
2023-04-24T02:57:25.468Z,10.20
2023-04-24T03:02:26.732Z,8.10
2023-04-24T03:07:27.997Z,10.70
2023-04-24T03:12:29.040Z,12.10
2023-04-24T03:17:30.316Z,13.60
2023-04-24T03:22:32.958Z,10.60
2023-04-24T03:27:35.467Z,8.00
2023-04-24T03:32:41.175Z,8.20
2023-04-24T03:37:43.780Z,9.00
2023-04-24T03:43:07.598Z,9.00
2023-04-24T03:48:09.423Z,8.60
2023-04-24T03:53:11.918Z,7.80
2023-04-24T03:58:14.937Z,9.30
2023-04-24T04:03:16.793Z,11.70
2023-04-24T04:08:18.487Z,13.50
2023-04-24T04:13:19.640Z,8.40
2023-04-24T04:18:21.155Z,8.10
2023-04-24T04:23:23.186Z,10.50
2023-04-24T04:28:56.471Z,9.60
2023-04-24T04:33:58.812Z,11.40
2023-04-24T04:39:00.044Z,9.00
2023-04-24T04:44:16.611Z,11.00
2023-04-24T04:49:19.085Z,2.10
2023-04-24T04:59:21.559Z,9.50
2023-04-24T05:04:24.972Z,9.90
2023-04-24T05:09:27.646Z,9.80
2023-04-24T05:14:32.278Z,8.40
2023-04-24T05:19:36.274Z,9.10
2023-04-24T05:24:38.132Z,9.40
2023-04-24T05:30:02.200Z,7.80
2023-04-24T05:35:04.584Z,6.40
2023-04-24T05:40:06.345Z,6.40
2023-04-24T05:45:08.287Z,7.50
2023-04-24T05:50:11.102Z,6.90
2023-04-24T05:55:12.736Z,5.70
2023-04-24T06:00:14.530Z,4.50
2023-04-24T06:05:19.311Z,4.90
2023-04-24T06:10:20.687Z,5.20
2023-04-24T06:15:22.396Z,15.00
2023-04-24T06:25:44.879Z,4.40
2023-04-24T06:30:46.540Z,3.80
2023-04-24T06:35:48.122Z,3.00
2023-04-24T06:40:49.270Z,3.80
2023-04-24T06:45:50.393Z,3.70
2023-04-24T06:50:51.955Z,3.00
2023-04-24T06:55:52.988Z,3.00
2023-04-24T07:00:54.089Z,5.50
2023-04-24T07:05:55.602Z,4.90
2023-04-24T07:10:57.497Z,4.30
2023-04-24T07:15:58.579Z,3.90
2023-04-24T07:20:59.627Z,3.60
2023-04-24T07:26:00.720Z,4.00
2023-04-24T07:31:01.715Z,4.20
2023-04-24T07:36:02.943Z,3.80
2023-04-24T07:41:03.958Z,4.40
2023-04-24T07:46:07.104Z,4.10
2023-04-24T07:51:11.322Z,4.10
2023-04-24T07:56:12.395Z,3.20
2023-04-24T08:01:14.042Z,3.30
2023-04-24T08:06:15.562Z,3.50
2023-04-24T08:11:16.848Z,2.80
2023-04-24T08:16:18.145Z,3.50
2023-04-24T08:21:20.139Z,4.00
2023-04-24T08:26:21.241Z,3.10
2023-04-24T08:31:23.080Z,3.40
2023-04-24T08:36:26.503Z,3.40
2023-04-24T08:41:34.953Z,3.80
2023-04-24T08:46:37.372Z,3.50
2023-04-24T08:51:40.128Z,3.80
2023-04-24T08:56:44.417Z,3.10
2023-04-24T09:01:48.771Z,3.30
2023-04-24T09:06:51.120Z,3.90
2023-04-24T09:11:55.915Z,4.00
2023-04-24T09:16:57.370Z,3.80
2023-04-24T09:21:58.473Z,3.70
2023-04-24T09:27:01.758Z,3.20
2023-04-24T09:32:21.828Z,3.20
2023-04-24T09:37:30.188Z,3.20
2023-04-24T09:42:32.416Z,3.40
2023-04-24T09:47:40.663Z,5.00
2023-04-24T09:52:43.761Z,3.30
2023-04-24T09:57:49.705Z,3.10
2023-04-24T10:03:01.096Z,2.80
2023-04-24T10:08:05.454Z,3.10
2023-04-24T10:13:10.090Z,3.70
2023-04-24T10:18:12.012Z,3.10
2023-04-24T10:23:13.473Z,3.70
2023-04-24T10:28:15.374Z,3.20
2023-04-24T10:33:17.734Z,3.40
2023-04-24T10:38:28.034Z,3.20
2023-04-24T10:43:29.061Z,3.20
2023-04-24T10:48:31.027Z,3.70
2023-04-24T10:53:35.303Z,3.50
2023-04-24T10:58:48.403Z,3.50
2023-04-24T11:03:57.070Z,3.10
2023-04-24T11:09:06.468Z,3.70
2023-04-24T11:14:08.531Z,3.60
2023-04-24T11:19:20.894Z,3.20
2023-04-24T11:24:32.218Z,3.30
2023-04-24T11:29:52.022Z,3.60
2023-04-24T11:34:56.244Z,3.50
2023-04-24T11:39:59.158Z,3.10
2023-04-24T11:45:02.484Z,4.20
2023-04-24T11:50:06.723Z,2.90
2023-04-24T11:55:23.040Z,3.70
2023-04-24T12:00:26.990Z,3.10
2023-04-24T12:05:28.525Z,3.80
2023-04-24T12:10:31.899Z,3.70
2023-04-24T12:15:33.254Z,3.20
2023-04-24T12:20:35.846Z,3.60
2023-04-24T12:30:45.099Z,3.50
2023-04-24T12:35:46.570Z,3.40
2023-04-24T12:40:47.570Z,3.60
2023-04-24T12:45:49.230Z,3.80
2023-04-24T12:50:50.776Z,3.50
2023-04-24T12:55:53.154Z,3.00
2023-04-24T13:05:56.289Z,2.90
2023-04-24T13:10:57.442Z,3.40
2023-04-24T13:15:58.436Z,3.00
2023-04-24T13:20:59.853Z,13.30
2023-04-24T13:26:01.611Z,3.00
2023-04-24T13:31:02.575Z,3.50
2023-04-24T13:36:03.575Z,4.00
2023-04-24T13:41:04.669Z,3.90
2023-04-24T13:46:05.618Z,3.50
2023-04-24T13:51:06.617Z,4.30
2023-04-24T13:56:08.104Z,4.60
2023-04-24T14:01:09.385Z,3.60
2023-04-24T14:06:11.689Z,3.80
2023-04-24T14:11:13.562Z,3.80
2023-04-24T14:16:15.529Z,3.80
2023-04-24T14:21:24.400Z,3.80
2023-04-24T14:26:26.285Z,3.40
2023-04-24T14:31:52.858Z,3.80
2023-04-24T14:36:55.528Z,4.70
2023-04-24T14:41:56.987Z,2.90
2023-04-24T14:46:59.070Z,3.20
2023-04-24T14:52:04.770Z,3.00
2023-04-24T14:57:06.878Z,3.00
2023-04-24T15:02:16.019Z,3.70
2023-04-24T15:07:18.456Z,3.00
2023-04-24T15:12:19.558Z,3.00
2023-04-24T15:17:20.647Z,3.20
2023-04-24T15:22:21.703Z,3.60
2023-04-24T15:27:22.729Z,4.00
2023-04-24T15:32:23.912Z,3.90
2023-04-24T15:37:25.130Z,3.80
2023-04-24T15:42:26.927Z,3.80
2023-04-24T15:47:28.067Z,4.40
2023-04-24T15:52:29.095Z,4.50
2023-04-24T15:57:30.123Z,4.00
2023-04-24T16:02:31.259Z,5.10
2023-04-24T16:07:33.687Z,5.10
2023-04-24T16:12:34.838Z,5.90
2023-04-24T16:17:36.009Z,4.90
2023-04-24T16:22:38.602Z,5.30
2023-04-24T16:27:39.894Z,4.90
2023-04-24T16:32:40.856Z,6.40
2023-04-24T16:37:42.016Z,6.80
2023-04-24T16:42:42.985Z,6.70
2023-04-24T16:47:44.069Z,7.10
2023-04-24T16:52:45.150Z,6.90
2023-04-24T16:57:46.219Z,7.10
2023-04-24T17:02:49.693Z,7.20
2023-04-24T17:07:50.946Z,8.90
2023-04-24T17:12:51.972Z,8.80
2023-04-24T17:17:53.268Z,7.60
2023-04-24T17:22:54.252Z,8.30
2023-04-24T17:27:55.270Z,12.50
2023-04-24T17:32:56.364Z,19.80
2023-04-24T17:37:57.809Z,15.00
2023-04-24T17:42:58.832Z,15.80
2023-04-24T17:48:00.097Z,11.70
2023-04-24T17:53:01.224Z,9.40
2023-04-24T17:58:02.856Z,11.50
2023-04-24T18:03:06.049Z,20.70
2023-04-24T18:08:11.647Z,20.70
2023-04-24T18:13:12.812Z,20.20
2023-04-24T18:18:14.838Z,13.60
2023-04-24T18:23:15.862Z,20.10
2023-04-24T18:28:16.872Z,20.80
2023-04-24T18:33:18.429Z,21.40
2023-04-24T18:38:19.800Z,29.30
2023-04-24T18:43:21.067Z,31.00
2023-04-24T18:48:22.065Z,25.00
2023-04-24T18:53:23.575Z,26.10
2023-04-24T18:58:24.646Z,28.00
2023-04-24T19:03:25.623Z,20.50
2023-04-24T19:08:28.215Z,21.10
2023-04-24T19:14:08.515Z,19.70
2023-04-24T19:19:14.353Z,18.20
2023-04-24T19:24:19.098Z,20.40
2023-04-24T19:29:20.351Z,16.50
2023-04-24T19:34:21.324Z,16.80
2023-04-24T19:39:22.646Z,15.40
2023-04-24T19:44:24.625Z,11.80
2023-04-24T19:49:25.820Z,13.30
2023-04-24T19:54:27.225Z,16.00
2023-04-24T19:59:28.331Z,10.50
2023-04-24T20:04:29.472Z,10.30
2023-04-24T20:09:32.953Z,9.40
2023-04-24T20:19:35.434Z,8.20
2023-04-24T20:24:37.106Z,6.60
2023-04-24T20:29:38.526Z,5.50
2023-04-24T20:34:39.607Z,5.00
2023-04-24T20:39:40.714Z,3.50
2023-04-24T20:44:41.910Z,3.40
2023-04-24T20:49:42.896Z,4.40
2023-04-24T20:54:43.936Z,3.60
2023-04-24T20:59:44.986Z,4.00
2023-04-24T21:04:46.404Z,3.70
2023-04-24T21:09:48.103Z,4.10
2023-04-24T21:15:10.782Z,2.70
2023-04-24T21:20:12.108Z,4.50
2023-04-24T21:25:13.305Z,4.10
2023-04-24T21:30:14.570Z,5.70
2023-04-24T21:35:22.169Z,4.70
2023-04-24T21:40:25.722Z,5.00
2023-04-24T21:45:27.340Z,6.00
2023-04-24T21:50:29.988Z,5.80
2023-04-24T21:55:31.132Z,4.40
2023-04-24T22:00:33.454Z,5.20
2023-04-24T22:05:35.329Z,3.10
2023-04-24T22:10:37.323Z,5.00
2023-04-24T22:15:38.556Z,5.20
2023-04-24T22:20:39.634Z,5.40
2023-04-24T22:25:40.839Z,5.30
2023-04-24T22:30:42.271Z,4.90
2023-04-24T22:35:43.418Z,5.00
2023-04-24T22:40:44.443Z,4.20
2023-04-24T22:45:45.432Z,3.90
2023-04-24T22:50:46.523Z,4.40
2023-04-24T22:55:48.139Z,4.80
2023-04-24T23:00:49.382Z,4.90
2023-04-24T23:05:50.560Z,4.70
2023-04-24T23:10:56.756Z,6.00
2023-04-24T23:16:04.420Z,6.00
2023-04-24T23:21:06.066Z,6.80
2023-04-24T23:26:07.171Z,8.60
2023-04-24T23:31:08.258Z,9.60
2023-04-24T23:36:09.385Z,7.30
2023-04-24T23:41:11.343Z,8.40
2023-04-24T23:46:19.685Z,9.20
2023-04-24T23:51:22.645Z,8.60
2023-04-24T23:56:25.987Z,10.70
